Time;durP1;ratioP1;P1;durP2;ratioP2;P2;SDS_P1;SDS_P2;PMS_P1;PMS_P2;Temp;Humidity;BMP_temperature;BMP_pressure;BME280_temperature;BME280_humidity;BME280_pressure;Samples;Min_cycle;Max_cycle;Signal;HPM_P1;HPM_P2
2021/12/22 00:03:07;;;;;;;10.73;4.43;;;;;;;-3.26;96.92;100769.06;8162897;29;20390;-82
2021/12/22 00:07:07;;;;;;;;;;;;;;;-3.27;96.97;100763.81;8144967;29;20493;-82
2021/12/22 00:11:10;;;;;;;8.73;4.77;;;;;;;-3.29;96.75;100760.41;8153055;29;19925;-82
2021/12/22 00:15:11;;;;;;;;;;;;;;;-3.29;97.52;100763.94;8128810;29;20568;-83
2021/12/22 00:19:11;;;;;;;7.80;4.15;;;;;;;-3.28;97.39;100762.09;8141879;29;19919;-82
2021/12/22 00:23:11;;;;;;;8.85;4.20;;;;;;;-3.28;97.31;100760.25;8146010;29;20429;-83
2021/12/22 00:27:12;;;;;;;9.40;3.72;;;;;;;-3.26;97.89;100763.66;8144964;29;20122;-84
2021/12/22 00:31:14;;;;;;;7.53;4.47;;;;;;;-3.23;97.37;100762.53;8132095;29;20040;-83
2021/12/22 00:35:15;;;;;;;10.10;4.65;;;;;;;-3.24;97.63;100756.31;8126571;29;20071;-83
2021/12/22 00:39:16;;;;;;;11.07;4.55;;;;;;;-3.24;97.45;100759.00;8152111;29;20055;-83
2021/12/22 00:43:17;;;;;;;9.52;4.05;;;;;;;-3.24;98.08;100758.16;8143505;29;20048;-82
2021/12/22 00:47:19;;;;;;;12.48;4.68;;;;;;;-3.22;98.29;100761.53;8142352;29;20103;-82
2021/12/22 00:51:20;;;;;;;12.38;4.78;;;;;;;-3.25;97.49;100762.66;8131772;29;20075;-82
2021/12/22 00:55:21;;;;;;;8.43;4.90;;;;;;;-3.26;97.85;100763.66;8151714;29;20043;-82
2021/12/22 00:59:21;;;;;;;11.30;4.63;;;;;;;-3.27;97.78;100761.13;8128437;29;20071;-82
2021/12/22 01:03:22;;;;;;;11.35;4.97;;;;;;;-3.28;97.56;100767.47;8151056;29;20060;-83
2021/12/22 01:07:22;;;;;;;10.98;4.78;;;;;;;-3.31;97.25;100770.44;8149234;29;20478;-83
2021/12/22 01:11:23;;;;;;;9.15;4.75;;;;;;;-3.30;98.27;100764.06;8116837;29;20071;-81
2021/12/22 01:15:24;;;;;;;15.07;5.25;;;;;;;-3.31;97.86;100770.44;8157792;29;20042;-83
2021/12/22 01:19:34;;;;;;;13.32;4.93;;;;;;;-3.32;98.56;100780.38;8153491;29;20043;-83
2021/12/22 01:23:51;;;;;;;10.40;4.57;;;;;;;-3.31;98.60;100775.84;8161264;29;20066;-83
2021/12/22 01:27:52;;;;;;;9.40;4.35;;;;;;;-3.30;97.67;100786.50;8141786;29;20523;-81
2021/12/22 01:31:56;;;;;;;11.38;6.05;;;;;;;-3.31;97.72;100789.31;8144237;29;20134;-83
2021/12/22 01:35:56;;;;;;;11.05;5.40;;;;;;;-3.34;98.26;100789.59;8167688;29;20091;-83
2021/12/22 01:39:57;;;;;;;10.82;5.53;;;;;;;-3.37;98.57;100788.00;8124331;29;20458;-83
2021/12/22 01:43:57;;;;;;;10.80;5.43;;;;;;;-3.36;98.64;100778.97;8139251;29;20087;-83
2021/12/22 01:52:19;;;;;;;12.02;6.13;;;;;;;-3.36;98.32;100778.97;8148081;29;20051;-83
2021/12/22 01:56:26;;;;;;;17.58;10.00;;;;;;;-3.38;98.31;100778.22;8107709;29;20035;-83
2021/12/22 02:00:27;;;;;;;23.08;12.23;;;;;;;-3.38;98.66;100782.78;8153170;29;20051;-83
2021/12/22 02:04:27;;;;;;;20.85;9.07;;;;;;;-3.36;98.79;100795.13;8142855;29;20052;-82
2021/12/22 02:08:28;;;;;;;15.10;6.07;;;;;;;-3.37;98.86;100790.72;8147649;29;20520;-81
2021/12/22 02:12:33;;;;;;;14.50;6.28;;;;;;;-3.41;99.34;100789.28;8138924;29;20497;-82
2021/12/22 02:16:38;;;;;;;12.52;5.93;;;;;;;-3.41;99.21;100794.69;8130540;29;20486;-82
2021/12/22 02:20:38;;;;;;;13.40;6.32;;;;;;;-3.41;99.60;100791.13;8136778;29;20139;-82
2021/12/22 02:24:44;;;;;;;17.02;8.73;;;;;;;-3.42;99.09;100803.75;8152724;29;20044;-82
2021/12/22 02:28:48;;;;;;;16.95;7.78;;;;;;;-3.42;98.95;100803.75;8138893;29;20122;-82
2021/12/22 02:33:09;;;;;;;15.52;6.85;;;;;;;-3.44;99.11;100795.78;8136229;29;20532;-82
2021/12/22 02:37:13;;;;;;;13.13;5.93;;;;;;;-3.43;99.70;100785.88;8139280;29;20044;-82
2021/12/22 02:41:16;;;;;;;15.40;6.07;;;;;;;-3.44;99.28;100785.03;8140933;29;20040;-83
2021/12/22 02:45:19;;;;;;;13.63;5.75;;;;;;;-3.44;99.57;100785.03;8131449;29;20104;-83
2021/12/22 02:49:20;;;;;;;12.27;6.35;;;;;;;-3.47;98.98;100777.22;8126253;29;20042;-83
2021/12/22 02:53:26;;;;;;;16.83;8.50;;;;;;;-3.46;99.26;100791.53;8156466;29;20072;-82
2021/12/22 02:57:35;;;;;;;18.63;8.45;;;;;;;-3.49;99.47;100789.94;8140128;29;20111;-83
2021/12/22 03:05:48;;;;;;;12.63;6.07;;;;;;;-3.55;99.26;100793.19;8148217;29;20136;-82
2021/12/22 03:10:18;;;;;;;15.25;7.43;;;;;;;-3.55;99.31;100792.34;8147127;29;20055;-82
2021/12/22 03:14:19;;;;;;;14.35;6.38;;;;;;;-3.56;99.26;100790.66;8163556;29;20058;-81
2021/12/22 03:18:20;;;;;;;20.38;9.32;;;;;;;-3.58;99.55;100781.84;8141877;29;20080;-83
2021/12/22 03:22:22;;;;;;;18.60;9.70;;;;;;;-3.58;99.84;100790.75;8147890;29;20051;-83
2021/12/22 03:26:23;;;;;;;14.70;7.18;;;;;;;-3.55;99.94;100786.94;8158146;29;20127;-82
2021/12/22 03:30:25;;;;;;;16.60;7.18;;;;;;;-3.54;99.71;100783.25;8155868;29;20035;-82
2021/12/22 03:34:26;;;;;;;14.63;6.78;;;;;;;-3.55;99.76;100785.09;8165731;29;20484;-82
2021/12/22 03:38:27;;;;;;;15.95;6.20;;;;;;;-3.53;99.83;100779.59;8167585;29;20075;-83
2021/12/22 03:42:27;;;;;;;15.93;6.47;;;;;;;-3.56;99.84;100772.63;8148948;29;20059;-82
2021/12/22 03:46:28;;;;;;;20.00;9.13;;;;;;;-3.54;99.99;100772.47;8134429;29;20042;-83
2021/12/22 03:50:28;;;;;;;15.35;8.10;;;;;;;-3.57;99.91;100762.84;8156875;29;20055;-82
2021/12/22 03:54:28;;;;;;;18.77;6.88;;;;;;;-3.55;100.00;100768.09;8154838;29;20067;-82
2021/12/22 03:58:30;;;;;;;13.48;6.25;;;;;;;-3.54;100.00;100767.97;8143863;29;20048;-83
2021/12/22 04:02:30;;;;;;;20.08;7.03;;;;;;;-3.53;100.00;100758.03;8150327;29;20123;-82
2021/12/22 04:06:31;;;;;;;15.90;6.95;;;;;;;-3.52;100.00;100760.59;8138742;29;20087;-82
2021/12/22 04:10:31;;;;;;;16.00;6.63;;;;;;;-3.52;100.00;100752.50;8128785;29;20036;-82
2021/12/22 04:14:32;;;;;;;19.88;9.95;;;;;;;-3.51;99.99;100756.94;8134510;29;20139;-81
2021/12/22 04:18:32;;;;;;;25.73;13.07;;;;;;;-3.51;100.00;100766.81;8143416;29;20063;-82
2021/12/22 04:22:32;;;;;;;21.48;12.23;;;;;;;-3.51;99.99;100773.09;8128029;29;20044;-81
2021/12/22 04:26:33;;;;;;;21.70;11.27;;;;;;;-3.51;100.00;100783.00;8153669;28;20160;-81
2021/12/22 04:30:42;;;;;;;18.73;8.00;;;;;;;-3.50;100.00;100790.09;8135870;29;20122;-82
2021/12/22 04:34:42;;;;;;;16.42;7.20;;;;;;;-3.53;99.85;100772.38;8153148;29;20043;-82
2021/12/22 04:38:43;;;;;;;15.95;6.97;;;;;;;-3.57;100.00;100767.38;8133726;29;20550;-80
2021/12/22 04:42:44;;;;;;;16.83;7.32;;;;;;;-3.58;100.00;100766.50;8146111;29;20505;-82
2021/12/22 04:46:44;;;;;;;18.00;10.02;;;;;;;-3.59;100.00;100763.97;8124787;29;20103;-81
2021/12/22 04:50:45;;;;;;;17.67;9.27;;;;;;;-3.60;100.00;100770.34;8148518;29;20047;-83
2021/12/22 04:55:03;;;;;;;19.25;8.27;;;;;;;-3.64;100.00;100761.66;8140415;29;20047;-82
2021/12/22 04:59:03;;;;;;;15.88;7.72;;;;;;;-3.68;100.00;100758.41;8120073;29;20059;-82
2021/12/22 05:03:04;;;;;;;21.60;7.80;;;;;;;-3.70;100.00;100754.97;8153373;29;20048;-82
2021/12/22 05:07:04;;;;;;;18.98;8.20;;;;;;;-3.73;99.96;100749.00;8132149;29;20103;-82
2021/12/22 05:11:05;;;;;;;18.98;7.80;;;;;;;-3.77;99.75;100756.53;8133025;29;20119;-82
2021/12/22 05:15:05;;;;;;;19.08;8.98;;;;;;;-3.79;100.00;100761.19;8146733;29;20112;-83
2021/12/22 05:19:15;;;;;;;18.95;8.88;;;;;;;-3.83;99.71;100758.91;8168443;29;20111;-82
2021/12/22 05:23:17;;;;;;;19.33;8.60;;;;;;;-3.86;100.00;100765.41;8166241;29;20074;-82
2021/12/22 05:27:17;;;;;;;16.45;8.35;;;;;;;-3.90;99.90;100758.56;8152115;29;20046;-82
2021/12/22 05:31:19;;;;;;;18.33;8.00;;;;;;;-3.95;100.00;100763.50;8147668;29;20569;-82
2021/12/22 05:35:22;;;;;;;18.23;8.10;;;;;;;-3.97;100.00;100760.09;8149054;28;20142;-80
2021/12/22 05:39:22;;;;;;;20.55;9.63;;;;;;;-3.99;100.00;100760.22;8146263;29;20044;-82
2021/12/22 05:43:23;;;;;;;27.00;14.55;;;;;;;-4.02;100.00;100765.84;8147970;29;20564;-81
2021/12/22 05:47:23;;;;;;;17.17;10.23;;;;;;;-4.03;100.00;100768.69;8143722;29;20496;-81
2021/12/22 05:51:29;;;;;;;17.42;8.75;;;;;;;-4.08;99.94;100762.84;8151532;29;20050;-82
2021/12/22 05:55:30;;;;;;;16.08;7.45;;;;;;;-4.08;100.00;100752.94;8127164;29;20807;-82
2021/12/22 05:59:30;;;;;;;18.35;8.55;;;;;;;-4.09;100.00;100756.63;8127069;29;20051;-81
2021/12/22 06:03:30;;;;;;;22.10;9.07;;;;;;;-4.12;100.00;100755.03;8151707;29;20048;-81
2021/12/22 06:07:31;;;;;;;18.83;8.38;;;;;;;-4.10;100.00;100764.81;8157329;29;20378;-81
2021/12/22 06:11:32;;;;;;;18.10;8.15;;;;;;;-4.10;100.00;100762.13;8152502;29;20063;-82
2021/12/22 06:15:34;;;;;;;16.75;7.30;;;;;;;-4.11;100.00;100761.25;8150813;29;20035;-82
2021/12/22 06:19:34;;;;;;;16.85;7.03;;;;;;;-4.09;100.00;100770.06;8150280;29;20382;-83
2021/12/22 06:23:35;;;;;;;17.00;9.20;;;;;;;-4.04;100.00;100775.94;8145759;29;20023;-81
2021/12/22 06:27:38;;;;;;;17.52;8.57;;;;;;;-4.06;99.66;100782.41;8140600;29;20046;-80
2021/12/22 06:31:39;;;;;;;16.60;7.37;;;;;;;-4.11;100.00;100788.19;8125675;29;20469;-81
2021/12/22 06:35:39;;;;;;;16.38;7.38;;;;;;;-4.15;99.53;100798.38;8153885;29;20055;-81
2021/12/22 06:39:40;;;;;;;19.05;8.82;;;;;;;-4.19;99.86;100806.84;8161749;29;20480;-81
2021/12/22 06:43:40;;;;;;;21.13;8.05;;;;;;;-4.18;100.00;100804.00;8160666;29;20055;-81
2021/12/22 06:47:41;;;;;;;15.70;7.43;;;;;;;-4.23;100.00;100808.94;8130682;29;20043;-81
2021/12/22 06:51:42;;;;;;;18.38;8.35;;;;;;;-4.26;100.00;100808.34;8139065;29;20043;-81
2021/12/22 06:55:42;;;;;;;17.35;7.32;;;;;;;-4.30;99.56;100807.75;8156284;29;20102;-81
2021/12/22 06:59:43;;;;;;;19.63;8.60;;;;;;;-4.36;99.31;100821.72;8151277;29;20048;-81
2021/12/22 07:03:43;;;;;;;18.65;7.68;;;;;;;-4.43;99.81;100807.06;8123836;29;20078;-81
2021/12/22 07:07:44;;;;;;;15.20;6.45;;;;;;;-4.45;99.77;100800.97;8149049;29;20078;-81
2021/12/22 07:11:45;;;;;;;17.83;7.28;;;;;;;-4.40;100.00;100790.69;8135722;29;20479;-80
2021/12/22 07:15:46;;;;;;;17.17;7.40;;;;;;;-4.36;100.00;100809.13;8157234;29;20059;-80
2021/12/22 07:19:46;;;;;;;15.25;8.07;;;;;;;-4.32;100.00;100809.72;8144875;29;20106;-81
2021/12/22 07:23:47;;;;;;;17.20;7.32;;;;;;;-4.27;99.72;100812.88;8162521;29;20040;-79
2021/12/22 07:27:47;;;;;;;21.10;7.88;;;;;;;-4.24;100.00;100822.53;8152690;29;20051;-80
2021/12/22 07:31:48;;;;;;;19.00;7.68;;;;;;;-4.18;99.75;100822.00;8161614;29;20556;-81
2021/12/22 07:36:03;;;;;;;23.20;8.60;;;;;;;-4.13;99.50;100834.09;8158979;29;20059;-81
2021/12/22 07:40:07;;;;;;;18.20;9.38;;;;;;;-4.07;99.81;100823.78;8151270;29;20486;-81
2021/12/22 07:44:07;;;;;;;16.92;9.27;;;;;;;-4.00;99.46;100828.50;8152266;29;20036;-80
2021/12/22 07:48:08;;;;;;;18.52;10.15;;;;;;;-3.93;99.53;100826.13;8139493;29;20050;-81
2021/12/22 07:52:08;;;;;;;15.98;9.00;;;;;;;-3.85;100.00;100838.97;8150630;29;20050;-80
2021/12/22 07:56:09;;;;;;;36.83;16.85;;;;;;;-3.83;99.15;100828.91;8146741;29;20489;-80
2021/12/22 08:00:10;;;;;;;26.00;11.57;;;;;;;-3.83;99.21;100837.84;8155374;29;20413;-81
2021/12/22 08:04:13;;;;;;;18.80;9.35;;;;;;;-3.82;99.04;100828.78;8138547;29;20047;-80
2021/12/22 08:08:17;;;;;;;16.75;9.55;;;;;;;-3.78;98.73;100821.28;8156751;29;20047;-80
2021/12/22 08:12:18;;;;;;;18.33;7.75;;;;;;;-3.75;98.58;100819.19;8162184;29;20131;-79
2021/12/22 08:16:18;;;;;;;17.27;7.50;;;;;;;-3.76;98.63;100825.53;8156867;29;20044;-81
2021/12/22 08:20:20;;;;;;;19.00;7.75;;;;;;;-3.75;98.33;100813.81;8130924;29;20139;-79
2021/12/22 08:24:26;;;;;;;21.05;8.73;;;;;;;-3.71;97.86;100815.25;8156767;29;20048;-80
2021/12/22 08:28:27;;;;;;;17.00;8.57;;;;;;;-3.59;98.04;100817.84;8151869;29;20601;-80
2021/12/22 08:32:27;;;;;;;20.85;8.88;;;;;;;-3.53;97.81;100804.69;8133006;29;20062;-79
2021/12/22 08:40:47;;;;;;;21.10;11.65;;;;;;;-3.24;97.59;100801.28;8162886;29;20051;-80
2021/12/22 08:44:48;;;;;;;25.65;14.70;;;;;;;-3.06;97.22;100809.56;8147197;29;20492;-80
2021/12/22 08:48:49;;;;;;;27.58;16.38;;;;;;;-2.92;97.15;100811.84;8162979;29;20091;-81
2021/12/22 08:52:49;;;;;;;25.52;13.95;;;;;;;-2.78;96.58;100810.63;8156614;29;20052;-81
2021/12/22 08:56:50;;;;;;;28.08;13.15;;;;;;;-2.64;96.84;100815.63;8147789;29;20051;-80
2021/12/22 09:00:50;;;;;;;15.20;8.10;;;;;;;-2.48;96.06;100811.50;8169138;29;20054;-80
2021/12/22 09:04:50;;;;;;;21.13;9.40;;;;;;;-2.31;95.57;100810.81;8157133;29;20059;-80
2021/12/22 09:08:52;;;;;;;16.15;8.52;;;;;;;-2.19;94.14;100806.97;8170663;29;20291;-83
2021/12/22 09:12:53;;;;;;;16.00;8.43;;;;;;;-2.06;93.96;100806.66;8171860;29;20107;-81
2021/12/22 09:16:54;;;;;;;16.02;9.02;;;;;;;-1.96;93.71;100799.41;8141756;29;20054;-81
2021/12/22 09:20:54;;;;;;;21.88;10.80;;;;;;;-1.86;93.56;100793.97;8166332;29;20489;-81
2021/12/22 09:24:55;;;;;;;18.67;9.98;;;;;;;-1.75;92.76;100798.38;8151202;29;20136;-81
2021/12/22 09:28:56;;;;;;;18.73;9.38;;;;;;;-1.65;91.85;100800.03;8144823;29;20051;-81
2021/12/22 09:32:56;;;;;;;17.05;8.15;;;;;;;-1.53;91.77;100800.72;8132374;29;20040;-81
2021/12/22 09:36:56;;;;;;;19.80;8.77;;;;;;;-1.39;91.71;100796.69;8164227;29;20481;-81
2021/12/22 09:40:58;;;;;;;19.67;8.77;;;;;;;-1.22;91.00;100792.34;8155802;29;20508;-80
2021/12/22 09:45:01;;;;;;;20.13;9.73;;;;;;;-1.07;91.06;100785.44;8167421;29;20058;-81
2021/12/22 09:49:18;;;;;;;20.63;9.32;;;;;;;-0.89;90.54;100776.50;8148074;29;20047;-81
2021/12/22 09:53:29;;;;;;;27.45;14.32;;;;;;;-0.66;90.22;100771.50;8163868;29;20083;-81
2021/12/22 09:57:31;;;;;;;27.73;12.95;;;;;;;-0.62;87.68;100765.66;8166640;29;20044;-81
2021/12/22 10:01:34;;;;;;;19.20;9.77;;;;;;;-0.41;89.23;100770.75;8138480;29;20047;-81
2021/12/22 10:05:36;;;;;;;18.85;9.77;;;;;;;-0.23;87.92;100762.63;8157241;29;20071;-82
2021/12/22 10:10:02;;;;;;;22.00;8.93;;;;;;;0.03;87.79;100754.53;8149164;29;20141;-81
2021/12/22 10:14:23;;;;;;;19.33;8.93;;;;;;;0.29;87.30;100757.22;8146305;29;20126;-81
2021/12/22 10:18:26;;;;;;;16.83;8.70;;;;;;;0.45;85.02;100751.91;8144444;29;20050;-82
2021/12/22 10:22:33;;;;;;;20.10;10.15;;;;;;;0.60;84.25;100749.44;8155977;29;20066;-82
2021/12/22 10:26:34;;;;;;;19.13;8.60;;;;;;;0.72;84.01;100741.03;8168832;29;20043;-82
2021/12/22 10:30:47;;;;;;;14.82;8.38;;;;;;;0.83;82.89;100735.28;8153664;29;20417;-83
2021/12/22 10:34:59;;;;;;;18.25;8.57;;;;;;;0.98;80.87;100730.94;8150743;29;20051;-82
2021/12/22 10:39:00;;;;;;;15.00;8.85;;;;;;;1.14;81.27;100739.13;8137926;29;20672;-82
2021/12/22 10:43:02;;;;;;;20.02;8.25;;;;;;;1.23;81.33;100729.13;8153806;29;20054;-82
2021/12/22 10:47:14;;;;;;;13.32;7.13;;;;;;;1.27;77.13;100716.91;8150569;29;20031;-82
2021/12/22 10:51:31;;;;;;;15.73;8.48;;;;;;;1.37;81.04;100719.47;8160708;29;20154;-82
2021/12/22 10:55:43;;;;;;;18.50;9.80;;;;;;;1.35;81.18;100706.06;8147637;29;20083;-82
2021/12/22 10:59:53;;;;;;;17.83;9.57;;;;;;;1.35;81.62;100707.94;8163608;29;20072;-82
2021/12/22 11:04:01;;;;;;;16.88;8.68;;;;;;;1.28;77.46;100702.34;8133192;29;20059;-81
2021/12/22 11:08:17;;;;;;;23.90;9.30;;;;;;;1.37;77.32;100708.63;8159366;29;20675;-83
2021/12/22 11:12:37;;;;;;;20.70;9.10;;;;;;;1.44;76.75;100697.94;8156889;29;20074;-81
2021/12/22 11:17:12;;;;;;;20.23;9.07;;;;;;;1.62;78.28;100705.91;8146054;29;20497;-81
2021/12/22 11:21:23;;;;;;;17.80;9.38;;;;;;;1.69;78.39;100690.63;8165193;29;20044;-83
2021/12/22 11:25:25;;;;;;;19.88;10.32;;;;;;;1.63;78.66;100675.84;8141014;29;20162;-82
2021/12/22 11:29:33;;;;;;;19.05;9.63;;;;;;;1.50;77.25;100683.66;8142263;29;20127;-83
2021/12/22 11:33:38;;;;;;;18.60;9.88;;;;;;;1.43;77.55;100675.34;8131070;29;20039;-82
2021/12/22 11:37:39;;;;;;;17.65;10.38;;;;;;;1.58;78.69;100678.25;8153769;29;20123;-82
2021/12/22 11:41:44;;;;;;;24.42;9.48;;;;;;;1.74;78.32;100675.50;8144709;29;20063;-84
2021/12/22 11:45:47;;;;;;;21.02;10.32;;;;;;;1.75;77.91;100679.06;8140661;29;20453;-83
2021/12/22 11:49:51;;;;;;;24.77;11.15;;;;;;;1.77;79.06;100667.00;8142890;29;20111;-82
2021/12/22 11:53:55;;;;;;;22.27;10.88;;;;;;;1.89;78.79;100667.50;8150741;29;20411;-82
2021/12/22 11:58:24;;;;;;;18.77;9.95;;;;;;;2.28;78.19;100664.84;8151652;29;20054;-79
2021/12/22 12:02:32;;;;;;;20.25;10.13;;;;;;;2.86;78.30;100661.88;8145575;29;20068;-80
2021/12/22 12:06:46;;;;;;;20.60;12.25;;;;;;;3.52;78.83;100654.94;8153015;29;20048;-80
2021/12/22 12:10:49;;;;;;;19.50;11.10;;;;;;;3.89;77.46;100650.50;8158367;29;20556;-80
2021/12/22 12:23:32;;;;;;;24.17;12.02;;;;;;;3.16;74.67;100641.94;8158608;29;20055;-83
2021/12/22 12:27:52;;;;;;;21.35;12.13;;;;;;;3.31;73.43;100633.00;8151162;29;20108;-79
2021/12/22 12:31:52;;;;;;;23.42;11.52;;;;;;;3.50;73.88;100627.03;8160141;29;20063;-79
2021/12/22 12:36:04;;;;;;;19.88;11.57;;;;;;;3.70;73.25;100635.53;8153081;29;20043;-79
2021/12/22 12:40:05;;;;;;;17.88;10.95;;;;;;;3.78;72.64;100632.75;8161272;29;20122;-80
2021/12/22 12:44:11;;;;;;;20.55;11.60;;;;;;;3.47;69.99;100624.66;8169627;29;20044;-79
2021/12/22 12:48:32;;;;;;;22.85;12.25;;;;;;;3.15;69.71;100621.19;8157708;29;20132;-79
2021/12/22 12:52:33;;;;;;;19.85;11.85;;;;;;;2.91;70.80;100613.19;8152027;29;20051;-83
2021/12/22 12:56:36;;;;;;;22.20;11.35;;;;;;;2.36;69.91;100606.88;8143661;29;20059;-82
2021/12/22 13:00:45;;;;;;;21.88;11.32;;;;;;;2.18;71.74;100612.53;8142737;29;20131;-81
2021/12/22 13:04:47;;;;;;;17.48;10.25;;;;;;;2.13;72.74;100595.06;8161475;29;20058;-81
2021/12/22 13:08:47;;;;;;;20.90;11.10;;;;;;;2.06;72.46;100592.19;8154225;29;20032;-82
2021/12/22 13:13:00;;;;;;;17.17;10.93;;;;;;;2.10;72.57;100581.81;8159565;29;20048;-82
2021/12/22 13:17:01;;;;;;;22.23;11.98;;;;;;;2.15;73.10;100588.44;8138522;29;20040;-81
2021/12/22 13:21:07;;;;;;;27.13;12.52;;;;;;;2.32;72.66;100588.34;8146769;29;20056;-83
2021/12/22 13:25:11;;;;;;;22.75;11.43;;;;;;;1.98;72.08;100586.78;8146517;29;20052;-82
2021/12/22 13:29:15;;;;;;;19.95;11.23;;;;;;;1.99;73.68;100580.31;8147422;29;20068;-82
2021/12/22 13:33:17;;;;;;;22.08;11.15;;;;;;;1.89;73.31;100585.97;8129605;29;20048;-82
2021/12/22 13:37:18;;;;;;;16.92;11.05;;;;;;;1.89;73.87;100580.53;8164376;29;20044;-82
2021/12/22 13:41:21;;;;;;;21.65;10.75;;;;;;;1.86;74.33;100583.59;8164141;29;20144;-81
2021/12/22 13:45:47;;;;;;;21.10;11.05;;;;;;;1.79;74.55;100588.03;8176448;29;20082;-82
2021/12/22 13:49:49;;;;;;;21.55;12.30;;;;;;;1.78;74.34;100568.16;8145171;29;20138;-82
2021/12/22 13:53:50;;;;;;;20.02;11.00;;;;;;;1.86;74.37;100569.16;8125754;29;20079;-82
2021/12/22 13:57:51;;;;;;;21.02;10.43;;;;;;;1.92;74.29;100565.75;8150182;29;20051;-82
2021/12/22 14:01:54;;;;;;;23.25;11.65;;;;;;;2.00;74.49;100552.13;8146955;29;20074;-82
2021/12/22 14:06:09;;;;;;;20.13;11.27;;;;;;;2.04;74.35;100551.59;8135527;29;20095;-83
2021/12/22 14:10:12;;;;;;;21.90;11.00;;;;;;;1.84;74.05;100547.56;8144767;29;20044;-82
2021/12/22 14:14:33;;;;;;;24.50;12.02;;;;;;;1.80;74.64;100552.53;8160731;29;20087;-82
2021/12/22 14:18:34;;;;;;;24.33;14.85;;;;;;;1.88;74.68;100554.38;8137062;29;20107;-82
2021/12/22 14:22:37;;;;;;;17.95;10.70;;;;;;;1.89;74.01;100544.34;8142468;29;20046;-82
2021/12/22 14:26:48;;;;;;;17.45;9.88;;;;;;;1.70;74.04;100551.88;8147902;29;20067;-83
2021/12/22 14:30:49;;;;;;;18.63;10.10;;;;;;;1.56;74.09;100553.44;8137188;29;20040;-82
2021/12/22 14:34:59;;;;;;;20.60;11.57;;;;;;;1.51;74.11;100547.66;8146353;29;20050;-82
2021/12/22 14:38:59;;;;;;;19.05;9.93;;;;;;;1.55;74.72;100542.75;8149579;29;20052;-81
2021/12/22 14:43:07;;;;;;;20.05;10.88;;;;;;;1.50;75.37;100543.28;8142868;29;20047;-82
2021/12/22 14:47:19;;;;;;;19.90;10.13;;;;;;;1.38;74.97;100539.22;8150054;29;20485;-83
2021/12/22 14:51:22;;;;;;;18.17;9.32;;;;;;;1.30;75.70;100545.50;8145986;29;20068;-83
2021/12/22 14:55:46;;;;;;;20.08;9.75;;;;;;;1.24;76.45;100543.47;8137468;29;20048;-82
2021/12/22 14:59:46;;;;;;;20.95;10.27;;;;;;;1.09;76.47;100534.31;8136432;29;20413;-82
2021/12/22 15:03:55;;;;;;;23.13;11.18;;;;;;;0.94;76.86;100539.59;8136891;29;20063;-82
2021/12/22 15:07:56;;;;;;;22.80;12.48;;;;;;;0.80;77.02;100532.97;8162515;29;20393;-82
2021/12/22 15:11:56;;;;;;;23.48;12.73;;;;;;;0.67;77.81;100536.19;8153628;29;20052;-82
2021/12/22 15:15:57;;;;;;;21.60;11.40;;;;;;;0.53;78.58;100522.44;8133287;29;20031;-81
2021/12/22 15:19:57;;;;;;;15.73;10.13;;;;;;;0.35;79.08;100517.16;8135266;29;20114;-82
2021/12/22 15:23:58;;;;;;;19.58;12.15;;;;;;;0.19;80.07;100517.97;8142529;29;20575;-82
2021/12/22 15:27:59;;;;;;;21.33;12.02;;;;;;;0.00;80.65;100508.28;8151289;29;20046;-81
2021/12/22 15:31:59;;;;;;;27.40;15.02;;;;;;;-0.14;81.22;100496.19;8128396;29;20127;-82
2021/12/22 15:36:00;;;;;;;23.42;13.05;;;;;;;-0.27;81.62;100503.91;8159681;29;20514;-82
2021/12/22 15:40:01;;;;;;;23.65;13.32;;;;;;;-0.42;82.08;100502.81;8144125;29;20047;-80
2021/12/22 15:44:01;;;;;;;22.60;12.75;;;;;;;-0.57;83.06;100505.28;8141431;29;20065;-82
2021/12/22 15:48:02;;;;;;;24.23;12.45;;;;;;;-0.69;83.26;100502.84;8147806;29;20075;-81
2021/12/22 15:52:03;;;;;;;24.40;13.55;;;;;;;-0.87;83.35;100503.91;8130684;29;20039;-81
2021/12/22 15:56:04;;;;;;;24.30;11.65;;;;;;;-1.03;84.46;100510.91;8151606;29;20453;-81
2021/12/22 16:00:10;;;;;;;23.70;13.20;;;;;;;-1.15;85.33;100518.44;8146227;29;20425;-81
2021/12/22 16:04:11;;;;;;;24.88;12.85;;;;;;;-1.24;86.13;100513.97;8148679;29;20387;-82
2021/12/22 16:08:12;;;;;;;26.13;12.43;;;;;;;-1.33;86.03;100514.91;8131857;29;20051;-82
2021/12/22 16:12:12;;;;;;;26.80;12.50;;;;;;;-1.42;86.29;100510.44;8136272;29;20708;-81
2021/12/22 16:16:13;;;;;;;21.08;12.15;;;;;;;-1.49;86.67;100506.63;8141020;29;20044;-81
2021/12/22 16:20:15;;;;;;;21.05;11.32;;;;;;;-1.55;86.77;100513.50;8143167;29;20063;-81
2021/12/22 16:24:17;;;;;;;19.23;9.93;;;;;;;-1.63;86.83;100499.94;8174823;29;20051;-82
2021/12/22 16:28:18;;;;;;;20.98;9.20;;;;;;;-1.69;87.07;100487.03;8161465;29;20126;-83
2021/12/22 16:32:19;;;;;;;18.45;10.73;;;;;;;-1.68;87.23;100488.72;8135350;29;20119;-81
2021/12/22 16:36:19;;;;;;;21.15;12.55;;;;;;;-1.69;87.97;100487.88;8143460;29;20746;-82
2021/12/22 16:40:21;;;;;;;20.35;10.65;;;;;;;-1.71;87.89;100486.34;8157984;29;20036;-82
2021/12/22 16:44:27;;;;;;;20.67;11.07;;;;;;;-1.73;87.93;100489.16;8135908;29;20051;-82
2021/12/22 16:48:28;;;;;;;19.73;10.38;;;;;;;-1.71;87.67;100489.88;8152884;29;20570;-81
2021/12/22 16:52:29;;;;;;;20.95;10.63;;;;;;;-1.70;89.06;100496.13;8155107;29;20102;-81
2021/12/22 16:56:33;;;;;;;23.05;10.65;;;;;;;-1.70;89.10;100488.88;8168011;29;20058;-81
2021/12/22 17:00:35;;;;;;;19.75;10.77;;;;;;;-1.71;89.59;100497.13;8153833;29;20082;-82
2021/12/22 17:04:36;;;;;;;22.30;10.90;;;;;;;-1.83;89.96;100491.94;8129157;29;20036;-82
2021/12/22 17:08:42;;;;;;;20.13;10.70;;;;;;;-1.85;90.08;100496.66;8154788;29;20467;-81
2021/12/22 17:12:42;;;;;;;24.77;13.20;;;;;;;-1.92;90.65;100498.28;8144156;29;20086;-82
2021/12/22 17:16:43;;;;;;;27.00;12.40;;;;;;;-2.05;91.32;100487.00;8166508;29;20043;-82
2021/12/22 17:20:44;;;;;;;27.75;12.45;;;;;;;-2.07;91.75;100486.28;8165518;29;20086;-82
2021/12/22 17:24:44;;;;;;;30.52;12.90;;;;;;;-2.12;91.65;100483.19;8165545;29;20098;-82
2021/12/22 17:28:44;;;;;;;29.38;11.75;;;;;;;-2.14;91.32;100477.09;8141191;29;20047;-82
2021/12/22 17:32:46;;;;;;;25.02;11.60;;;;;;;-2.18;91.24;100470.31;8151770;29;20410;-82
2021/12/22 17:36:46;;;;;;;23.13;11.52;;;;;;;-2.22;91.50;100471.63;8163950;29;20044;-82
2021/12/22 17:40:48;;;;;;;25.05;11.30;;;;;;;-2.28;91.15;100467.66;8155054;29;20072;-82
2021/12/22 17:44:48;;;;;;;23.55;10.73;;;;;;;-2.32;91.54;100475.22;8158180;29;20162;-83
2021/12/22 17:48:49;;;;;;;26.65;11.48;;;;;;;-2.37;91.26;100482.91;8150660;29;20044;-83
2021/12/22 17:52:49;;;;;;;27.95;10.80;;;;;;;-2.41;91.05;100478.81;8146127;29;20044;-83
2021/12/22 17:56:50;;;;;;;21.88;10.95;;;;;;;-2.44;91.54;100481.81;8180774;29;20067;-84
2021/12/22 18:00:50;;;;;;;29.02;11.38;;;;;;;-2.42;91.98;100489.75;8164929;29;20051;-84
2021/12/22 18:04:55;;;;;;;21.08;10.95;;;;;;;-2.42;92.01;100487.91;8151369;29;20050;-83
2021/12/22 18:08:58;;;;;;;25.70;12.57;;;;;;;-2.39;91.92;100492.16;8155858;29;20039;-84
2021/12/22 18:12:58;;;;;;;;;;;;;;;-2.41;92.26;100489.63;8160457;29;20035;-83
2021/12/22 18:16:59;;;;;;;23.17;11.60;;;;;;;-2.40;91.86;100491.31;8155914;29;19925;-84
2021/12/22 18:20:59;;;;;;;25.90;13.75;;;;;;;-2.43;92.24;100483.50;8171352;29;20468;-85
2021/12/22 18:25:00;;;;;;;37.63;17.67;;;;;;;-2.45;92.30;100477.41;8181080;29;20043;-86
2021/12/22 18:29:06;;;;;;;41.90;19.02;;;;;;;-2.49;92.12;100473.31;8170397;29;20087;-84
2021/12/22 18:33:06;;;;;;;46.33;22.15;;;;;;;-2.54;92.52;100464.81;8171067;29;20063;-86
2021/12/22 18:37:16;;;;;;;41.28;20.38;;;;;;;-2.55;91.96;100447.78;8192115;28;20028;-83
2021/12/22 18:41:23;;;;;;;36.30;17.67;;;;;;;-2.57;92.27;100454.31;8190994;29;20044;-84
2021/12/22 18:45:23;;;;;;;30.27;15.05;;;;;;;-2.60;92.17;100451.91;8147179;29;20043;-83
2021/12/22 18:49:23;;;;;;;30.85;13.13;;;;;;;-2.59;92.99;100434.72;8153495;29;20055;-83
2021/12/22 18:53:26;;;;;;;26.05;12.73;;;;;;;-2.56;91.96;100429.00;8169820;29;20047;-83
2021/12/22 18:57:26;;;;;;;24.45;11.65;;;;;;;-2.57;92.46;100424.63;8155781;29;20055;-82
2021/12/22 19:01:29;;;;;;;27.83;13.77;;;;;;;-2.56;92.47;100420.91;8147009;29;20119;-82